createdAt,value
2023-10-30T00:02:25.720Z,7.70
2023-10-30T00:04:57.345Z,7.20
2023-10-30T00:07:29.076Z,8.10
2023-10-30T00:10:00.716Z,7.50
2023-10-30T00:12:33.298Z,7.60
2023-10-30T00:15:06.210Z,7.50
2023-10-30T00:17:37.886Z,7.30
2023-10-30T00:20:09.599Z,7.80
2023-10-30T00:22:41.240Z,7.70
2023-10-30T00:25:12.837Z,7.60
2023-10-30T00:27:44.476Z,7.80
2023-10-30T00:30:16.267Z,7.70
2023-10-30T00:32:47.932Z,6.70
2023-10-30T00:35:19.568Z,6.90
2023-10-30T00:37:53.438Z,7.40
2023-10-30T00:40:25.596Z,7.60
2023-10-30T00:42:57.221Z,6.90
2023-10-30T00:45:29.050Z,7.00
2023-10-30T00:48:03.030Z,7.10
2023-10-30T00:50:34.636Z,6.60
2023-10-30T00:53:06.331Z,7.20
2023-10-30T00:55:39.426Z,6.60
2023-10-30T00:58:11.011Z,6.20
2023-10-30T01:00:42.626Z,6.50
2023-10-30T01:03:14.547Z,5.90
2023-10-30T01:05:47.351Z,6.30
2023-10-30T01:08:19.532Z,6.20
2023-10-30T01:10:51.195Z,5.90
2023-10-30T01:13:22.804Z,5.70
2023-10-30T01:15:55.383Z,5.70
2023-10-30T01:18:27.227Z,5.30
2023-10-30T01:20:58.986Z,5.00
2023-10-30T01:23:30.682Z,5.10
2023-10-30T01:26:02.816Z,4.80
2023-10-30T01:28:34.481Z,4.60
2023-10-30T01:31:06.216Z,4.70
2023-10-30T01:33:37.958Z,4.90
2023-10-30T01:36:09.826Z,4.50
2023-10-30T01:38:41.452Z,4.80
2023-10-30T01:41:13.247Z,4.00
2023-10-30T01:43:45.152Z,4.20
2023-10-30T01:46:19.375Z,4.30
2023-10-30T01:48:51.478Z,3.90
2023-10-30T01:51:23.233Z,4.00
2023-10-30T01:53:55.331Z,3.90
2023-10-30T01:56:28.074Z,3.90
2023-10-30T01:59:00.878Z,3.80
2023-10-30T02:01:36.032Z,3.80
2023-10-30T02:04:07.748Z,3.60
2023-10-30T02:06:39.420Z,3.60
2023-10-30T02:09:12.283Z,3.60
2023-10-30T02:11:43.884Z,3.40
2023-10-30T02:14:15.465Z,3.40
2023-10-30T02:16:47.099Z,3.40
2023-10-30T02:19:23.558Z,3.20
2023-10-30T02:21:56.885Z,3.10
2023-10-30T02:24:28.565Z,3.00
2023-10-30T02:27:00.400Z,2.80
2023-10-30T02:29:31.995Z,2.90
2023-10-30T02:32:03.731Z,2.70
2023-10-30T02:34:35.323Z,3.00
2023-10-30T02:37:09.910Z,2.60
2023-10-30T02:39:41.935Z,3.00
2023-10-30T02:42:14.020Z,2.50
2023-10-30T02:44:45.669Z,2.90
2023-10-30T02:47:17.202Z,2.60
2023-10-30T02:49:48.985Z,2.70
2023-10-30T02:52:20.724Z,2.60
2023-10-30T02:54:52.334Z,2.70
2023-10-30T02:57:23.993Z,2.70
2023-10-30T02:59:58.134Z,2.70
2023-10-30T03:02:30.019Z,2.70
2023-10-30T03:05:01.959Z,2.60
2023-10-30T03:11:46.418Z,2.70
2023-10-30T03:14:18.109Z,2.80
2023-10-30T03:16:49.768Z,2.60
2023-10-30T03:19:21.504Z,2.30
2023-10-30T03:21:53.163Z,2.40
2023-10-30T03:24:24.973Z,2.30
2023-10-30T03:26:57.258Z,2.60
2023-10-30T03:29:28.916Z,2.40
2023-10-30T03:32:00.648Z,2.50
2023-10-30T03:34:32.308Z,2.80
2023-10-30T03:37:04.016Z,2.40
2023-10-30T03:39:36.063Z,2.50
2023-10-30T03:42:07.900Z,2.60
2023-10-30T03:44:41.932Z,2.20
2023-10-30T03:47:13.663Z,2.20
2023-10-30T03:49:46.319Z,2.70
2023-10-30T03:52:17.956Z,2.50
2023-10-30T03:54:50.300Z,2.50
2023-10-30T03:57:22.391Z,2.50
2023-10-30T03:59:54.233Z,2.60
2023-10-30T04:02:25.876Z,2.60
2023-10-30T04:04:58.713Z,2.50
2023-10-30T04:07:32.863Z,2.50
2023-10-30T04:10:04.667Z,2.40
2023-10-30T04:12:40.120Z,2.30
2023-10-30T04:15:11.882Z,2.30
2023-10-30T04:17:46.625Z,2.40
2023-10-30T04:20:18.338Z,2.50
2023-10-30T04:22:50.724Z,2.30
2023-10-30T04:25:24.593Z,2.40
2023-10-30T04:27:56.244Z,1.90
2023-10-30T04:30:30.159Z,2.00
2023-10-30T04:33:01.987Z,2.00
2023-10-30T04:35:33.696Z,2.10
2023-10-30T04:38:07.955Z,2.50
2023-10-30T04:40:39.602Z,2.20
2023-10-30T04:43:11.494Z,2.30
2023-10-30T04:45:44.701Z,2.10
2023-10-30T04:48:16.439Z,2.20
2023-10-30T04:50:48.127Z,2.40
2023-10-30T04:53:19.747Z,2.50
2023-10-30T04:55:51.997Z,2.20
2023-10-30T04:58:23.883Z,2.30
2023-10-30T05:00:55.630Z,2.50
2023-10-30T05:03:27.297Z,2.30
2023-10-30T05:06:02.829Z,2.10
2023-10-30T05:08:36.535Z,2.30
2023-10-30T05:13:39.877Z,2.30
2023-10-30T05:16:14.414Z,2.50
2023-10-30T05:18:46.164Z,2.60
2023-10-30T05:21:17.762Z,2.40
2023-10-30T05:23:50.984Z,2.60
2023-10-30T05:26:22.675Z,2.60
2023-10-30T05:28:54.275Z,2.50
2023-10-30T05:31:26.033Z,2.30
2023-10-30T05:33:57.819Z,2.50
2023-10-30T05:36:29.473Z,2.40
2023-10-30T05:39:02.152Z,2.60
2023-10-30T05:41:34.296Z,2.40
2023-10-30T05:44:05.985Z,2.40
2023-10-30T05:46:37.686Z,2.30
2023-10-30T05:49:09.302Z,2.50
2023-10-30T05:51:44.042Z,2.40
2023-10-30T05:54:15.715Z,2.80
2023-10-30T05:56:47.385Z,3.50
2023-10-30T05:59:19.389Z,2.90
2023-10-30T06:01:51.130Z,2.90
2023-10-30T06:04:25.912Z,2.90
2023-10-30T06:06:57.673Z,2.60
2023-10-30T06:09:29.685Z,2.70
2023-10-30T06:12:01.622Z,2.50
2023-10-30T06:14:33.286Z,2.00
2023-10-30T06:17:04.960Z,2.40
2023-10-30T06:19:36.587Z,2.10
2023-10-30T06:22:08.274Z,1.90
2023-10-30T06:24:40.084Z,2.10
2023-10-30T06:27:11.691Z,2.00
2023-10-30T06:29:46.172Z,1.80
2023-10-30T06:32:20.918Z,1.80
2023-10-30T06:34:52.613Z,2.10
2023-10-30T06:37:24.408Z,2.80
2023-10-30T06:39:56.136Z,2.20
2023-10-30T06:42:27.899Z,2.20
2023-10-30T06:44:59.631Z,2.30
2023-10-30T06:47:31.386Z,1.80
2023-10-30T06:50:04.020Z,2.10
2023-10-30T06:52:38.734Z,1.70
2023-10-30T06:55:11.035Z,2.20
2023-10-30T06:57:42.719Z,1.80
2023-10-30T07:00:16.963Z,2.10
2023-10-30T07:02:48.714Z,2.10
2023-10-30T07:05:22.975Z,2.30
2023-10-30T07:07:57.325Z,2.20
2023-10-30T07:10:31.782Z,2.70
2023-10-30T07:13:03.412Z,3.00
2023-10-30T07:15:38.032Z,3.70
2023-10-30T07:18:09.799Z,3.20
2023-10-30T07:20:41.408Z,3.10
2023-10-30T07:23:13.039Z,2.90
2023-10-30T07:25:47.120Z,2.60
2023-10-30T07:28:19.511Z,2.20
2023-10-30T07:30:51.334Z,2.00
2023-10-30T07:33:23.016Z,2.00
2023-10-30T07:35:54.992Z,2.10
2023-10-30T07:38:26.576Z,1.60
2023-10-30T07:40:58.222Z,2.00
2023-10-30T07:43:30.338Z,1.90
2023-10-30T07:46:02.015Z,1.50
2023-10-30T07:48:33.852Z,1.60
2023-10-30T07:51:05.612Z,1.90
2023-10-30T07:53:37.223Z,1.50
2023-10-30T07:56:08.890Z,1.70
2023-10-30T07:58:40.563Z,1.40
2023-10-30T08:01:12.578Z,1.70
2023-10-30T08:03:48.234Z,1.80
2023-10-30T08:06:19.976Z,1.80
2023-10-30T08:08:54.442Z,1.70
2023-10-30T08:11:28.219Z,1.90
2023-10-30T08:16:31.359Z,1.90
2023-10-30T08:19:03.120Z,1.80
2023-10-30T08:21:35.582Z,1.50
2023-10-30T08:24:10.739Z,1.50
2023-10-30T08:26:42.338Z,1.60
2023-10-30T08:29:14.047Z,1.70
2023-10-30T08:31:45.751Z,1.70
2023-10-30T08:34:17.439Z,1.50
2023-10-30T08:36:49.593Z,1.90
2023-10-30T08:39:21.881Z,1.50
2023-10-30T08:41:53.547Z,2.10
2023-10-30T08:44:27.939Z,2.50
2023-10-30T08:47:00.993Z,1.90
2023-10-30T08:49:33.966Z,1.90
2023-10-30T08:52:06.044Z,1.80
2023-10-30T08:54:37.682Z,1.70
2023-10-30T08:57:17.292Z,1.60
2023-10-30T08:59:49.840Z,1.60
2023-10-30T09:02:23.316Z,1.90
2023-10-30T09:04:56.800Z,1.90
2023-10-30T09:07:28.633Z,2.10
2023-10-30T09:10:03.122Z,2.30
2023-10-30T09:12:34.835Z,1.90
2023-10-30T09:15:09.152Z,2.00
2023-10-30T09:17:40.854Z,2.30
2023-10-30T09:20:13.771Z,1.90
2023-10-30T09:22:45.616Z,1.80
2023-10-30T09:25:17.329Z,1.80
2023-10-30T09:27:51.564Z,1.90
2023-10-30T09:30:29.053Z,2.30
2023-10-30T09:33:01.085Z,2.10
2023-10-30T09:35:35.685Z,1.60
2023-10-30T09:38:07.330Z,1.60
2023-10-30T09:40:39.004Z,1.70
2023-10-30T09:43:13.829Z,2.30
2023-10-30T09:45:48.837Z,2.50
2023-10-30T09:48:20.963Z,2.30
2023-10-30T09:50:53.404Z,2.20
2023-10-30T09:53:26.924Z,2.00
2023-10-30T09:56:00.852Z,1.90
2023-10-30T09:58:33.754Z,3.20
2023-10-30T10:01:06.687Z,2.20
2023-10-30T10:03:38.598Z,1.80
2023-10-30T10:06:10.420Z,1.80
2023-10-30T10:08:44.115Z,1.80
2023-10-30T10:11:16.374Z,1.90
2023-10-30T10:14:01.888Z,1.60
2023-10-30T10:16:37.239Z,1.60
2023-10-30T10:19:27.259Z,1.70
2023-10-30T10:21:59.709Z,1.60
2023-10-30T10:24:33.825Z,1.20
2023-10-30T10:27:08.109Z,1.40
2023-10-30T10:29:40.202Z,1.50
2023-10-30T10:32:12.972Z,1.70
2023-10-30T10:34:49.766Z,2.20
2023-10-30T10:37:21.748Z,1.30
2023-10-30T10:39:55.133Z,1.90
2023-10-30T10:42:31.384Z,1.60
2023-10-30T10:45:03.668Z,1.70
2023-10-30T10:47:35.541Z,1.90
2023-10-30T10:50:07.537Z,1.60
2023-10-30T10:52:40.879Z,1.70
2023-10-30T10:55:13.629Z,1.70
2023-10-30T10:57:52.965Z,1.60
2023-10-30T11:00:30.822Z,1.30
2023-10-30T11:03:06.416Z,1.80
2023-10-30T11:05:39.016Z,2.00
2023-10-30T11:08:48.071Z,2.00
2023-10-30T11:11:39.274Z,2.00
2023-10-30T11:14:30.409Z,1.60
2023-10-30T11:17:05.303Z,1.60
2023-10-30T11:19:39.742Z,1.50
2023-10-30T11:22:11.382Z,1.60
2023-10-30T11:24:45.193Z,1.80
2023-10-30T11:27:45.819Z,1.60
2023-10-30T11:30:24.014Z,1.60
2023-10-30T11:32:58.562Z,1.70
2023-10-30T11:35:33.216Z,1.70
2023-10-30T11:38:04.834Z,2.00
2023-10-30T11:40:36.494Z,1.50
2023-10-30T11:43:09.155Z,1.20
2023-10-30T11:45:41.638Z,1.40
2023-10-30T11:48:18.732Z,2.10
2023-10-30T11:50:54.329Z,1.30
2023-10-30T11:53:29.340Z,1.30
2023-10-30T11:56:01.814Z,1.20
2023-10-30T11:58:34.326Z,1.70
2023-10-30T12:01:07.068Z,1.40
2023-10-30T12:03:38.820Z,1.60
2023-10-30T12:06:10.481Z,1.60
2023-10-30T12:08:42.146Z,1.70
2023-10-30T12:11:13.940Z,1.40
2023-10-30T12:13:47.547Z,1.80
2023-10-30T12:16:19.303Z,1.60
2023-10-30T12:18:52.055Z,1.40
2023-10-30T12:21:24.381Z,1.40
2023-10-30T12:23:58.677Z,1.50
2023-10-30T12:26:35.086Z,1.70
2023-10-30T12:29:06.741Z,1.60
2023-10-30T12:31:38.769Z,1.70
2023-10-30T12:34:11.830Z,1.40
2023-10-30T12:36:43.828Z,1.90
2023-10-30T12:39:20.669Z,2.00
2023-10-30T12:41:56.659Z,2.20
2023-10-30T12:44:32.880Z,2.70
2023-10-30T12:47:04.622Z,1.90
2023-10-30T12:49:36.269Z,1.70
2023-10-30T12:52:07.989Z,1.90
2023-10-30T12:54:39.749Z,1.80
2023-10-30T12:57:11.310Z,1.70
2023-10-30T12:59:43.000Z,1.70
2023-10-30T13:02:14.862Z,1.70
2023-10-30T13:04:46.991Z,1.70
2023-10-30T13:07:20.153Z,1.80
2023-10-30T13:09:53.953Z,1.60
2023-10-30T13:12:26.414Z,1.80
2023-10-30T13:14:58.106Z,1.70
2023-10-30T13:17:29.847Z,1.60
2023-10-30T13:20:07.257Z,1.50
2023-10-30T13:22:38.861Z,1.90
2023-10-30T13:25:10.561Z,1.80
2023-10-30T13:27:42.281Z,1.70
2023-10-30T13:30:14.692Z,1.60
2023-10-30T13:32:46.349Z,1.60
2023-10-30T13:35:18.000Z,1.80
2023-10-30T13:37:49.736Z,2.00
2023-10-30T13:40:21.477Z,2.00
2023-10-30T13:42:53.194Z,2.00
2023-10-30T13:45:26.109Z,1.90
2023-10-30T13:47:57.825Z,2.00
2023-10-30T13:50:29.466Z,2.00
2023-10-30T13:53:01.332Z,2.60
2023-10-30T13:55:33.002Z,2.40
2023-10-30T13:58:06.627Z,2.10
2023-10-30T14:00:38.463Z,2.60
2023-10-30T14:03:10.236Z,2.70
2023-10-30T14:05:43.819Z,2.70
2023-10-30T14:08:16.836Z,3.10
2023-10-30T14:10:48.496Z,2.30
2023-10-30T14:13:20.127Z,2.70
2023-10-30T14:15:51.822Z,2.60
2023-10-30T14:18:23.574Z,2.60
2023-10-30T14:20:55.456Z,3.10
2023-10-30T14:23:27.087Z,3.10
2023-10-30T14:26:01.102Z,2.90
2023-10-30T14:28:33.397Z,3.20
2023-10-30T14:31:05.223Z,3.60
2023-10-30T14:33:36.940Z,3.60
2023-10-30T14:36:08.935Z,4.20
2023-10-30T14:38:40.650Z,3.70
2023-10-30T14:41:12.625Z,3.20
2023-10-30T14:43:44.358Z,2.60
2023-10-30T14:46:16.526Z,4.00
2023-10-30T14:48:48.277Z,5.30
2023-10-30T14:51:20.206Z,6.40
2023-10-30T14:53:51.951Z,5.80
2023-10-30T14:56:26.162Z,5.40
2023-10-30T14:58:57.856Z,5.10
2023-10-30T15:01:29.864Z,4.70
2023-10-30T15:04:01.716Z,5.10
2023-10-30T15:06:33.755Z,5.90
2023-10-30T15:09:06.540Z,6.90
2023-10-30T15:11:39.756Z,11.20
2023-10-30T15:14:11.546Z,12.80
2023-10-30T15:16:43.271Z,11.80
2023-10-30T15:19:17.724Z,9.90
2023-10-30T15:21:53.044Z,9.30
2023-10-30T15:24:30.066Z,9.50
2023-10-30T15:27:04.750Z,8.40
2023-10-30T15:29:36.842Z,9.10
2023-10-30T15:32:10.705Z,9.10
2023-10-30T15:34:42.519Z,9.40
2023-10-30T15:37:14.656Z,9.20
2023-10-30T15:39:46.383Z,8.90
2023-10-30T15:42:19.023Z,8.90
2023-10-30T15:44:51.207Z,9.10
2023-10-30T15:47:25.611Z,9.40
2023-10-30T15:49:57.692Z,10.40
2023-10-30T15:57:35.871Z,13.60
2023-10-30T16:00:08.237Z,12.80
2023-10-30T16:02:40.091Z,13.10
2023-10-30T16:05:12.198Z,13.30
2023-10-30T16:07:44.719Z,12.40
2023-10-30T16:12:51.277Z,13.80
2023-10-30T16:15:23.225Z,15.00
2023-10-30T16:20:31.894Z,23.40
2023-10-30T16:23:03.905Z,25.90
2023-10-30T16:25:35.598Z,29.20
2023-10-30T16:28:07.436Z,24.80
2023-10-30T16:30:39.136Z,24.40
2023-10-30T16:33:13.333Z,23.70
2023-10-30T16:35:46.464Z,24.60
2023-10-30T16:38:18.068Z,28.90
2023-10-30T16:40:49.694Z,26.00
2023-10-30T16:43:22.071Z,25.50
2023-10-30T16:45:53.746Z,20.60
2023-10-30T16:48:26.346Z,20.30
2023-10-30T16:51:01.123Z,17.00
2023-10-30T16:53:32.831Z,16.20
2023-10-30T16:56:07.538Z,15.30
2023-10-30T16:58:40.895Z,16.80
2023-10-30T17:01:12.521Z,17.00
2023-10-30T17:03:44.347Z,16.90
2023-10-30T17:06:16.751Z,16.30
2023-10-30T17:08:48.571Z,14.60
2023-10-30T17:11:20.221Z,14.30
2023-10-30T17:13:52.164Z,14.70
2023-10-30T17:16:23.988Z,15.30
2023-10-30T17:18:55.698Z,17.70
2023-10-30T17:21:28.349Z,13.60
2023-10-30T17:24:00.186Z,14.30
2023-10-30T17:26:31.944Z,13.80
2023-10-30T17:29:06.700Z,10.40
2023-10-30T17:31:39.146Z,10.70
2023-10-30T17:34:13.410Z,9.70
2023-10-30T17:36:49.835Z,10.00
2023-10-30T17:39:26.488Z,11.60
2023-10-30T17:41:58.767Z,11.60
2023-10-30T17:44:30.579Z,11.70
2023-10-30T17:47:02.354Z,14.60
2023-10-30T17:49:34.168Z,15.90
2023-10-30T17:52:05.986Z,17.50
2023-10-30T17:54:37.841Z,21.00
2023-10-30T17:57:12.552Z,24.90
2023-10-30T17:59:45.174Z,29.00
2023-10-30T18:02:16.978Z,31.90
2023-10-30T18:04:48.927Z,28.60
2023-10-30T18:07:20.571Z,24.30
2023-10-30T18:09:52.283Z,33.20
2023-10-30T18:12:23.879Z,30.00
2023-10-30T18:14:55.638Z,34.70
2023-10-30T18:17:27.905Z,44.80
2023-10-30T18:19:59.683Z,40.70
2023-10-30T18:22:31.979Z,34.80
2023-10-30T18:25:05.105Z,35.20
2023-10-30T18:27:36.721Z,33.00
2023-10-30T18:30:12.370Z,27.80
2023-10-30T18:32:46.390Z,23.80
2023-10-30T18:35:18.201Z,20.70
2023-10-30T18:37:52.631Z,21.00
2023-10-30T18:40:24.377Z,19.20
2023-10-30T18:42:56.116Z,19.20
2023-10-30T18:45:30.386Z,18.30
2023-10-30T18:48:02.134Z,15.80
2023-10-30T18:50:36.590Z,17.30
2023-10-30T18:53:08.894Z,18.10
2023-10-30T18:55:40.836Z,18.40
2023-10-30T18:58:14.395Z,19.10
2023-10-30T19:00:46.116Z,23.00
2023-10-30T19:03:19.984Z,20.40
2023-10-30T19:05:52.130Z,34.80
2023-10-30T19:08:25.121Z,22.10
2023-10-30T19:10:58.315Z,19.10
2023-10-30T19:13:32.001Z,18.20
2023-10-30T19:16:07.150Z,15.30
2023-10-30T19:18:39.906Z,16.00
2023-10-30T19:21:12.249Z,15.50
2023-10-30T19:23:44.248Z,15.90
2023-10-30T19:26:16.058Z,16.80
2023-10-30T19:28:48.701Z,18.10
2023-10-30T19:31:24.617Z,22.20
2023-10-30T19:33:57.136Z,24.50
2023-10-30T19:36:28.910Z,24.80
2023-10-30T19:39:00.624Z,24.50
2023-10-30T19:41:32.227Z,28.40
2023-10-30T19:44:04.315Z,31.90
2023-10-30T19:46:41.303Z,30.60
2023-10-30T19:49:13.306Z,28.80
2023-10-30T19:51:52.507Z,27.70
2023-10-30T19:54:28.869Z,26.60
2023-10-30T19:57:00.595Z,25.60
2023-10-30T19:59:32.851Z,24.70
2023-10-30T20:02:04.798Z,20.60
2023-10-30T20:04:37.910Z,20.30
2023-10-30T20:07:10.102Z,22.10
2023-10-30T20:09:52.051Z,23.60
2023-10-30T20:12:27.715Z,23.40
2023-10-30T20:14:59.638Z,22.40
2023-10-30T20:17:31.435Z,23.70
2023-10-30T20:20:04.280Z,23.40
2023-10-30T20:22:35.993Z,24.60
2023-10-30T20:25:08.855Z,24.20
2023-10-30T20:27:40.688Z,22.60
2023-10-30T20:30:14.064Z,20.90
2023-10-30T20:32:54.606Z,20.30
2023-10-30T20:35:28.605Z,19.90
2023-10-30T20:38:03.491Z,19.70
2023-10-30T20:40:35.253Z,18.90
2023-10-30T20:43:13.727Z,18.60
2023-10-30T20:45:47.114Z,18.50
2023-10-30T20:48:18.758Z,18.60
2023-10-30T20:50:52.677Z,17.60
2023-10-30T20:53:24.576Z,17.90
2023-10-30T20:55:57.129Z,17.30
2023-10-30T20:58:28.845Z,17.40
2023-10-30T21:01:00.512Z,17.50
2023-10-30T21:03:37.081Z,19.30
2023-10-30T21:06:09.159Z,19.40
2023-10-30T21:08:46.826Z,19.60
2023-10-30T21:11:18.527Z,21.70
2023-10-30T21:13:54.090Z,21.70
2023-10-30T21:16:25.988Z,21.70
2023-10-30T21:18:57.694Z,21.30
2023-10-30T21:21:32.376Z,21.60
2023-10-30T21:24:04.475Z,25.70
2023-10-30T21:26:36.576Z,25.60
2023-10-30T21:29:09.813Z,24.30
2023-10-30T21:31:42.682Z,22.70
2023-10-30T21:34:14.416Z,21.00
2023-10-30T21:36:46.749Z,16.70
2023-10-30T21:39:18.447Z,17.60
2023-10-30T21:41:51.788Z,14.50
2023-10-30T21:44:23.414Z,13.50
2023-10-30T21:46:55.205Z,12.90
2023-10-30T21:49:27.042Z,13.20
2023-10-30T21:51:58.760Z,12.00
2023-10-30T21:54:30.425Z,11.10
2023-10-30T21:57:02.081Z,12.30
2023-10-30T21:59:33.909Z,15.10
2023-10-30T22:02:05.665Z,16.20
2023-10-30T22:04:37.365Z,15.60
2023-10-30T22:07:09.482Z,15.10
2023-10-30T22:09:43.992Z,14.50
2023-10-30T22:12:15.710Z,13.60
2023-10-30T22:14:47.362Z,14.10
2023-10-30T22:17:22.134Z,12.60
2023-10-30T22:19:54.616Z,14.10
2023-10-30T22:22:26.335Z,14.60
2023-10-30T22:24:58.005Z,13.90
2023-10-30T22:27:32.678Z,14.00
2023-10-30T22:30:04.837Z,13.90
2023-10-30T22:32:37.397Z,13.20
2023-10-30T22:35:09.700Z,12.80
2023-10-30T22:37:42.184Z,13.40
2023-10-30T22:40:14.012Z,13.30
2023-10-30T22:42:45.637Z,13.20
2023-10-30T22:45:17.315Z,13.40
2023-10-30T22:47:50.233Z,12.40
2023-10-30T22:50:23.209Z,12.70
2023-10-30T22:52:57.160Z,12.20
2023-10-30T22:55:29.217Z,11.70
2023-10-30T22:58:03.804Z,11.10
2023-10-30T23:00:43.646Z,11.10
2023-10-30T23:03:16.047Z,12.00
2023-10-30T23:05:47.885Z,11.50
2023-10-30T23:08:19.660Z,11.30
2023-10-30T23:10:51.614Z,12.70
2023-10-30T23:13:24.043Z,12.40
2023-10-30T23:15:57.047Z,12.70
2023-10-30T23:18:28.668Z,13.30
2023-10-30T23:21:00.499Z,14.00
2023-10-30T23:23:32.052Z,13.60
2023-10-30T23:26:04.377Z,14.20
2023-10-30T23:28:36.011Z,13.40
2023-10-30T23:31:08.068Z,15.50
2023-10-30T23:33:39.747Z,17.50
2023-10-30T23:36:11.335Z,18.10
2023-10-30T23:38:42.941Z,18.40
2023-10-30T23:41:15.730Z,20.10
2023-10-30T23:43:50.329Z,23.30
2023-10-30T23:46:31.386Z,33.00
2023-10-30T23:49:07.351Z,26.00
2023-10-30T23:51:39.212Z,26.80
2023-10-30T23:54:10.832Z,25.70
2023-10-30T23:56:42.499Z,23.20
2023-10-30T23:59:16.666Z,22.50
